sensor_id;sensor_type;location;lat;lon;timestamp;temperature;humidity
59857;DHT22;45733;52.668;6.860;2022-12-29T00:02:20;11.40;99.90
59857;DHT22;45733;52.668;6.860;2022-12-29T00:04:46;11.40;99.90
59857;DHT22;45733;52.668;6.860;2022-12-29T00:07:14;11.50;99.90
59857;DHT22;45733;52.668;6.860;2022-12-29T00:09:40;11.40;99.90
59857;DHT22;45733;52.668;6.860;2022-12-29T00:12:06;11.50;99.90
59857;DHT22;45733;52.668;6.860;2022-12-29T00:14:32;11.50;99.90
59857;DHT22;45733;52.668;6.860;2022-12-29T00:17:16;11.50;99.90
59857;DHT22;45733;52.668;6.860;2022-12-29T00:19:42;11.50;99.90
59857;DHT22;45733;52.668;6.860;2022-12-29T00:22:27;11.50;99.90
59857;DHT22;45733;52.668;6.860;2022-12-29T00:25:12;11.50;99.90
59857;DHT22;45733;52.668;6.860;2022-12-29T00:27:57;11.40;99.90
59857;DHT22;45733;52.668;6.860;2022-12-29T00:30:42;11.40;99.90
59857;DHT22;45733;52.668;6.860;2022-12-29T00:33:32;11.50;99.90
59857;DHT22;45733;52.668;6.860;2022-12-29T00:36:22;11.50;99.90
59857;DHT22;45733;52.668;6.860;2022-12-29T00:39:05;11.50;99.90
59857;DHT22;45733;52.668;6.860;2022-12-29T00:41:51;11.50;99.90
59857;DHT22;45733;52.668;6.860;2022-12-29T00:44:35;11.50;99.90
59857;DHT22;45733;52.668;6.860;2022-12-29T00:47:01;11.50;99.90
59857;DHT22;45733;52.668;6.860;2022-12-29T00:49:28;11.50;99.90
59857;DHT22;45733;52.668;6.860;2022-12-29T00:52:05;11.50;99.90
59857;DHT22;45733;52.668;6.860;2022-12-29T00:54:34;11.60;99.90
59857;DHT22;45733;52.668;6.860;2022-12-29T00:57:00;11.50;99.90
59857;DHT22;45733;52.668;6.860;2022-12-29T00:59:27;11.60;99.90
59857;DHT22;45733;52.668;6.860;2022-12-29T01:01:53;11.60;99.90
59857;DHT22;45733;52.668;6.860;2022-12-29T01:04:21;11.70;99.90
59857;DHT22;45733;52.668;6.860;2022-12-29T01:06:47;11.60;99.90
59857;DHT22;45733;52.668;6.860;2022-12-29T01:09:13;11.70;99.90
59857;DHT22;45733;52.668;6.860;2022-12-29T01:11:58;11.70;99.90
59857;DHT22;45733;52.668;6.860;2022-12-29T01:14:24;11.70;99.90
59857;DHT22;45733;52.668;6.860;2022-12-29T01:16:50;11.80;99.90
59857;DHT22;45733;52.668;6.860;2022-12-29T01:19:17;11.80;99.90
59857;DHT22;45733;52.668;6.860;2022-12-29T01:21:47;11.90;99.90
59857;DHT22;45733;52.668;6.860;2022-12-29T01:24:17;11.80;99.90
59857;DHT22;45733;52.668;6.860;2022-12-29T01:26:43;11.80;99.90
59857;DHT22;45733;52.668;6.860;2022-12-29T01:29:12;11.80;99.90
59857;DHT22;45733;52.668;6.860;2022-12-29T01:31:38;11.80;99.90
59857;DHT22;45733;52.668;6.860;2022-12-29T01:34:05;11.80;99.90
59857;DHT22;45733;52.668;6.860;2022-12-29T01:36:31;11.80;99.90
59857;DHT22;45733;52.668;6.860;2022-12-29T01:38:57;11.80;99.90
59857;DHT22;45733;52.668;6.860;2022-12-29T01:41:23;11.80;99.90
59857;DHT22;45733;52.668;6.860;2022-12-29T01:43:55;11.80;99.90
59857;DHT22;45733;52.668;6.860;2022-12-29T01:46:35;11.80;99.90
59857;DHT22;45733;52.668;6.860;2022-12-29T01:49:12;11.80;99.90
59857;DHT22;45733;52.668;6.860;2022-12-29T01:56:59;11.70;99.90
59857;DHT22;45733;52.668;6.860;2022-12-29T01:59:31;11.70;99.90
59857;DHT22;45733;52.668;6.860;2022-12-29T02:01:58;11.70;99.90
59857;DHT22;45733;52.668;6.860;2022-12-29T02:04:27;11.70;99.90
59857;DHT22;45733;52.668;6.860;2022-12-29T02:07:01;11.70;99.90
59857;DHT22;45733;52.668;6.860;2022-12-29T02:09:29;11.70;99.90
59857;DHT22;45733;52.668;6.860;2022-12-29T02:11:55;11.70;99.90
59857;DHT22;45733;52.668;6.860;2022-12-29T02:14:22;11.70;99.90
59857;DHT22;45733;52.668;6.860;2022-12-29T02:31:18;11.70;99.90
59857;DHT22;45733;52.668;6.860;2022-12-29T02:36:56;11.60;99.90
59857;DHT22;45733;52.668;6.860;2022-12-29T02:44:51;11.50;99.90
59857;DHT22;45733;52.668;6.860;2022-12-29T02:47:39;11.40;99.90
59857;DHT22;45733;52.668;6.860;2022-12-29T02:50:37;11.40;99.90
59857;DHT22;45733;52.668;6.860;2022-12-29T02:53:05;11.40;99.90
59857;DHT22;45733;52.668;6.860;2022-12-29T02:55:32;11.30;99.90
59857;DHT22;45733;52.668;6.860;2022-12-29T03:00:54;11.30;99.90
59857;DHT22;45733;52.668;6.860;2022-12-29T03:06:17;11.30;99.90
59857;DHT22;45733;52.668;6.860;2022-12-29T03:11:19;11.40;99.90
59857;DHT22;45733;52.668;6.860;2022-12-29T03:14:23;11.40;99.90
59857;DHT22;45733;52.668;6.860;2022-12-29T03:17:26;11.40;99.90
59857;DHT22;45733;52.668;6.860;2022-12-29T03:20:01;11.40;99.90
59857;DHT22;45733;52.668;6.860;2022-12-29T03:22:32;11.50;99.90
59857;DHT22;45733;52.668;6.860;2022-12-29T03:25:43;11.40;99.90
59857;DHT22;45733;52.668;6.860;2022-12-29T03:28:01;11.50;99.90
59857;DHT22;45733;52.668;6.860;2022-12-29T03:30:30;11.50;99.90
59857;DHT22;45733;52.668;6.860;2022-12-29T03:33:01;11.50;99.90
59857;DHT22;45733;52.668;6.860;2022-12-29T03:35:31;11.50;99.90
59857;DHT22;45733;52.668;6.860;2022-12-29T03:38:05;11.50;99.90
59857;DHT22;45733;52.668;6.860;2022-12-29T03:40:34;11.50;99.90
59857;DHT22;45733;52.668;6.860;2022-12-29T03:43:01;11.50;99.90
59857;DHT22;45733;52.668;6.860;2022-12-29T03:45:28;11.50;99.90
59857;DHT22;45733;52.668;6.860;2022-12-29T03:47:54;11.50;99.90
59857;DHT22;45733;52.668;6.860;2022-12-29T03:50:20;11.50;99.90
59857;DHT22;45733;52.668;6.860;2022-12-29T03:52:46;11.50;99.90
59857;DHT22;45733;52.668;6.860;2022-12-29T03:55:12;11.50;99.90
59857;DHT22;45733;52.668;6.860;2022-12-29T03:57:37;11.50;99.90
59857;DHT22;45733;52.668;6.860;2022-12-29T04:00:05;11.50;99.90
59857;DHT22;45733;52.668;6.860;2022-12-29T04:02:31;11.60;99.90
59857;DHT22;45733;52.668;6.860;2022-12-29T04:04:57;11.50;99.90
59857;DHT22;45733;52.668;6.860;2022-12-29T04:07:23;11.60;99.90
59857;DHT22;45733;52.668;6.860;2022-12-29T04:09:49;11.50;99.90
59857;DHT22;45733;52.668;6.860;2022-12-29T04:12:15;11.60;99.90
59857;DHT22;45733;52.668;6.860;2022-12-29T04:14:41;11.60;99.90
59857;DHT22;45733;52.668;6.860;2022-12-29T04:17:07;11.50;99.90
59857;DHT22;45733;52.668;6.860;2022-12-29T04:19:33;11.50;99.90
59857;DHT22;45733;52.668;6.860;2022-12-29T04:21:58;11.50;99.90
59857;DHT22;45733;52.668;6.860;2022-12-29T04:24:24;11.40;99.90
59857;DHT22;45733;52.668;6.860;2022-12-29T04:26:50;11.40;99.90
59857;DHT22;45733;52.668;6.860;2022-12-29T04:29:16;11.40;99.90
59857;DHT22;45733;52.668;6.860;2022-12-29T04:31:43;11.40;99.90
59857;DHT22;45733;52.668;6.860;2022-12-29T04:34:09;11.40;99.90
59857;DHT22;45733;52.668;6.860;2022-12-29T04:36:35;11.40;99.90
59857;DHT22;45733;52.668;6.860;2022-12-29T04:39:01;11.40;99.90
59857;DHT22;45733;52.668;6.860;2022-12-29T04:41:28;11.30;99.90
59857;DHT22;45733;52.668;6.860;2022-12-29T04:43:53;11.30;99.90
59857;DHT22;45733;52.668;6.860;2022-12-29T04:46:19;11.30;99.90
59857;DHT22;45733;52.668;6.860;2022-12-29T04:48:45;11.30;99.90
59857;DHT22;45733;52.668;6.860;2022-12-29T04:51:11;11.30;99.90
59857;DHT22;45733;52.668;6.860;2022-12-29T04:53:37;11.30;99.90
59857;DHT22;45733;52.668;6.860;2022-12-29T04:56:04;11.20;99.90
59857;DHT22;45733;52.668;6.860;2022-12-29T04:58:30;11.30;99.90
59857;DHT22;45733;52.668;6.860;2022-12-29T05:00:55;11.30;99.90
59857;DHT22;45733;52.668;6.860;2022-12-29T05:03:21;11.30;99.90
59857;DHT22;45733;52.668;6.860;2022-12-29T05:05:47;11.30;99.90
59857;DHT22;45733;52.668;6.860;2022-12-29T05:08:13;11.30;99.90
59857;DHT22;45733;52.668;6.860;2022-12-29T05:10:39;11.30;99.90
59857;DHT22;45733;52.668;6.860;2022-12-29T05:13:05;11.20;99.90
59857;DHT22;45733;52.668;6.860;2022-12-29T05:15:31;11.20;99.90
59857;DHT22;45733;52.668;6.860;2022-12-29T05:17:57;11.30;99.90
59857;DHT22;45733;52.668;6.860;2022-12-29T05:20:23;11.20;99.90
59857;DHT22;45733;52.668;6.860;2022-12-29T05:22:49;11.20;99.90
59857;DHT22;45733;52.668;6.860;2022-12-29T05:25:15;11.20;99.90
59857;DHT22;45733;52.668;6.860;2022-12-29T05:27:41;11.20;99.90
59857;DHT22;45733;52.668;6.860;2022-12-29T05:30:07;11.20;99.90
59857;DHT22;45733;52.668;6.860;2022-12-29T05:32:33;11.20;99.90
59857;DHT22;45733;52.668;6.860;2022-12-29T05:34:59;11.30;99.90
59857;DHT22;45733;52.668;6.860;2022-12-29T05:37:25;11.30;99.90
59857;DHT22;45733;52.668;6.860;2022-12-29T05:39:51;11.30;99.90
59857;DHT22;45733;52.668;6.860;2022-12-29T05:42:17;11.30;99.90
59857;DHT22;45733;52.668;6.860;2022-12-29T05:44:43;11.20;99.90
59857;DHT22;45733;52.668;6.860;2022-12-29T05:47:09;11.20;99.90
59857;DHT22;45733;52.668;6.860;2022-12-29T05:49:34;11.20;99.90
59857;DHT22;45733;52.668;6.860;2022-12-29T05:52:00;11.20;99.90
59857;DHT22;45733;52.668;6.860;2022-12-29T05:54:26;11.10;99.90
59857;DHT22;45733;52.668;6.860;2022-12-29T05:56:52;11.10;99.90
59857;DHT22;45733;52.668;6.860;2022-12-29T05:59:25;11.10;99.90
59857;DHT22;45733;52.668;6.860;2022-12-29T06:01:51;11.10;99.90
59857;DHT22;45733;52.668;6.860;2022-12-29T06:04:17;11.10;99.90
59857;DHT22;45733;52.668;6.860;2022-12-29T06:06:43;11.10;99.90
59857;DHT22;45733;52.668;6.860;2022-12-29T06:09:10;11.10;99.90
59857;DHT22;45733;52.668;6.860;2022-12-29T06:11:36;11.10;99.90
59857;DHT22;45733;52.668;6.860;2022-12-29T06:14:03;11.10;99.90
59857;DHT22;45733;52.668;6.860;2022-12-29T06:16:28;11.10;99.90
59857;DHT22;45733;52.668;6.860;2022-12-29T06:18:54;11.10;99.90
59857;DHT22;45733;52.668;6.860;2022-12-29T06:21:20;11.00;99.90
59857;DHT22;45733;52.668;6.860;2022-12-29T06:23:46;11.10;99.90
59857;DHT22;45733;52.668;6.860;2022-12-29T06:26:12;10.90;99.90
59857;DHT22;45733;52.668;6.860;2022-12-29T06:28:38;11.00;99.90
59857;DHT22;45733;52.668;6.860;2022-12-29T06:31:04;11.00;99.90
59857;DHT22;45733;52.668;6.860;2022-12-29T06:33:30;11.00;99.90
59857;DHT22;45733;52.668;6.860;2022-12-29T06:35:56;11.00;99.90
59857;DHT22;45733;52.668;6.860;2022-12-29T06:38:22;11.10;99.90
59857;DHT22;45733;52.668;6.860;2022-12-29T06:40:47;11.00;99.90
59857;DHT22;45733;52.668;6.860;2022-12-29T06:43:13;10.90;99.90
59857;DHT22;45733;52.668;6.860;2022-12-29T06:45:40;10.90;99.90
59857;DHT22;45733;52.668;6.860;2022-12-29T06:48:06;10.90;99.90
59857;DHT22;45733;52.668;6.860;2022-12-29T06:50:32;10.80;99.90
59857;DHT22;45733;52.668;6.860;2022-12-29T06:52:58;10.90;99.90
59857;DHT22;45733;52.668;6.860;2022-12-29T06:55:24;10.80;99.90
59857;DHT22;45733;52.668;6.860;2022-12-29T06:57:50;10.90;99.90
59857;DHT22;45733;52.668;6.860;2022-12-29T07:00:16;10.90;99.90
59857;DHT22;45733;52.668;6.860;2022-12-29T07:02:44;10.80;99.90
59857;DHT22;45733;52.668;6.860;2022-12-29T07:05:10;10.70;99.90
59857;DHT22;45733;52.668;6.860;2022-12-29T07:07:36;10.60;99.90
59857;DHT22;45733;52.668;6.860;2022-12-29T07:10:03;10.50;99.90
59857;DHT22;45733;52.668;6.860;2022-12-29T07:12:29;10.50;99.90
59857;DHT22;45733;52.668;6.860;2022-12-29T07:14:55;10.40;99.90
59857;DHT22;45733;52.668;6.860;2022-12-29T07:17:21;10.50;99.90
59857;DHT22;45733;52.668;6.860;2022-12-29T07:19:47;10.50;99.90
59857;DHT22;45733;52.668;6.860;2022-12-29T07:22:13;10.60;99.90
59857;DHT22;45733;52.668;6.860;2022-12-29T07:24:39;10.60;99.90
59857;DHT22;45733;52.668;6.860;2022-12-29T07:27:05;10.60;99.90
59857;DHT22;45733;52.668;6.860;2022-12-29T07:29:31;10.60;99.90
59857;DHT22;45733;52.668;6.860;2022-12-29T07:31:57;10.70;99.90
59857;DHT22;45733;52.668;6.860;2022-12-29T07:34:22;10.60;99.90
59857;DHT22;45733;52.668;6.860;2022-12-29T07:36:48;10.60;99.90
59857;DHT22;45733;52.668;6.860;2022-12-29T07:39:14;10.70;99.90
59857;DHT22;45733;52.668;6.860;2022-12-29T07:41:40;10.70;99.90
59857;DHT22;45733;52.668;6.860;2022-12-29T07:44:08;10.60;99.90
59857;DHT22;45733;52.668;6.860;2022-12-29T07:46:34;10.60;99.90
59857;DHT22;45733;52.668;6.860;2022-12-29T07:49:00;10.60;99.90
59857;DHT22;45733;52.668;6.860;2022-12-29T07:51:26;10.60;99.90
59857;DHT22;45733;52.668;6.860;2022-12-29T07:53:52;10.60;99.90
59857;DHT22;45733;52.668;6.860;2022-12-29T07:56:18;10.50;99.90
59857;DHT22;45733;52.668;6.860;2022-12-29T07:58:44;10.50;99.90
59857;DHT22;45733;52.668;6.860;2022-12-29T08:01:10;10.50;99.90
59857;DHT22;45733;52.668;6.860;2022-12-29T08:03:36;10.50;99.90
59857;DHT22;45733;52.668;6.860;2022-12-29T08:06:02;10.50;99.90
59857;DHT22;45733;52.668;6.860;2022-12-29T08:08:28;10.60;99.90
59857;DHT22;45733;52.668;6.860;2022-12-29T08:10:54;10.60;99.90
59857;DHT22;45733;52.668;6.860;2022-12-29T08:13:20;10.50;99.90
59857;DHT22;45733;52.668;6.860;2022-12-29T08:15:46;10.50;99.90
59857;DHT22;45733;52.668;6.860;2022-12-29T08:18:11;10.50;99.90
59857;DHT22;45733;52.668;6.860;2022-12-29T08:20:37;10.50;99.90
59857;DHT22;45733;52.668;6.860;2022-12-29T08:23:03;10.40;99.90
59857;DHT22;45733;52.668;6.860;2022-12-29T08:25:29;10.30;99.90
59857;DHT22;45733;52.668;6.860;2022-12-29T08:27:55;10.30;99.90
59857;DHT22;45733;52.668;6.860;2022-12-29T08:30:22;10.30;99.90
59857;DHT22;45733;52.668;6.860;2022-12-29T08:32:48;10.20;99.90
59857;DHT22;45733;52.668;6.860;2022-12-29T08:35:14;10.20;99.90
59857;DHT22;45733;52.668;6.860;2022-12-29T08:37:39;10.30;99.90
59857;DHT22;45733;52.668;6.860;2022-12-29T08:40:06;10.30;99.90
59857;DHT22;45733;52.668;6.860;2022-12-29T08:42:33;10.30;99.90
59857;DHT22;45733;52.668;6.860;2022-12-29T08:44:59;10.20;99.90
59857;DHT22;45733;52.668;6.860;2022-12-29T08:47:26;10.20;99.90
59857;DHT22;45733;52.668;6.860;2022-12-29T08:49:51;10.10;99.90
59857;DHT22;45733;52.668;6.860;2022-12-29T08:52:18;10.10;99.90
59857;DHT22;45733;52.668;6.860;2022-12-29T08:54:44;10.10;99.90
59857;DHT22;45733;52.668;6.860;2022-12-29T08:57:10;10.20;99.90
59857;DHT22;45733;52.668;6.860;2022-12-29T08:59:36;10.40;99.90
59857;DHT22;45733;52.668;6.860;2022-12-29T09:02:02;10.40;99.90
59857;DHT22;45733;52.668;6.860;2022-12-29T09:04:28;10.40;99.90
59857;DHT22;45733;52.668;6.860;2022-12-29T09:06:54;10.30;99.90
59857;DHT22;45733;52.668;6.860;2022-12-29T09:09:20;10.50;99.90
59857;DHT22;45733;52.668;6.860;2022-12-29T09:11:46;10.50;99.90
59857;DHT22;45733;52.668;6.860;2022-12-29T09:14:13;10.50;99.90
59857;DHT22;45733;52.668;6.860;2022-12-29T09:16:39;10.50;99.90
59857;DHT22;45733;52.668;6.860;2022-12-29T09:19:25;10.50;99.90
59857;DHT22;45733;52.668;6.860;2022-12-29T09:21:51;10.80;99.90
59857;DHT22;45733;52.668;6.860;2022-12-29T09:24:17;10.80;99.90
59857;DHT22;45733;52.668;6.860;2022-12-29T09:26:43;10.80;99.90
59857;DHT22;45733;52.668;6.860;2022-12-29T09:29:09;10.80;99.90
59857;DHT22;45733;52.668;6.860;2022-12-29T09:31:35;10.90;99.90
59857;DHT22;45733;52.668;6.860;2022-12-29T09:34:01;10.90;99.90
59857;DHT22;45733;52.668;6.860;2022-12-29T09:36:27;11.10;99.90
59857;DHT22;45733;52.668;6.860;2022-12-29T09:38:53;11.10;99.90
59857;DHT22;45733;52.668;6.860;2022-12-29T09:44:38;11.00;99.90
59857;DHT22;45733;52.668;6.860;2022-12-29T09:47:10;10.90;99.90
59857;DHT22;45733;52.668;6.860;2022-12-29T09:49:47;10.80;99.90
59857;DHT22;45733;52.668;6.860;2022-12-29T09:52:25;11.00;99.90
59857;DHT22;45733;52.668;6.860;2022-12-29T09:55:05;10.80;99.90
59857;DHT22;45733;52.668;6.860;2022-12-29T09:57:46;10.90;99.90
59857;DHT22;45733;52.668;6.860;2022-12-29T10:00:18;10.90;99.90
59857;DHT22;45733;52.668;6.860;2022-12-29T10:17:06;11.10;99.90
59857;DHT22;45733;52.668;6.860;2022-12-29T10:22:28;11.10;99.90
59857;DHT22;45733;52.668;6.860;2022-12-29T10:24:59;11.10;99.90
59857;DHT22;45733;52.668;6.860;2022-12-29T10:27:31;11.10;99.90
59857;DHT22;45733;52.668;6.860;2022-12-29T10:29:59;11.00;99.90
59857;DHT22;45733;52.668;6.860;2022-12-29T10:35:29;11.00;99.90
59857;DHT22;45733;52.668;6.860;2022-12-29T10:41:03;11.10;99.90
59857;DHT22;45733;52.668;6.860;2022-12-29T10:43:46;11.00;99.90
59857;DHT22;45733;52.668;6.860;2022-12-29T10:46:34;11.00;99.90
59857;DHT22;45733;52.668;6.860;2022-12-29T10:49:02;11.00;99.90
59857;DHT22;45733;52.668;6.860;2022-12-29T10:51:31;10.90;99.90
59857;DHT22;45733;52.668;6.860;2022-12-29T10:54:59;10.90;99.90
59857;DHT22;45733;52.668;6.860;2022-12-29T10:57:11;10.80;99.90
59857;DHT22;45733;52.668;6.860;2022-12-29T10:59:39;10.80;99.90
59857;DHT22;45733;52.668;6.860;2022-12-29T11:02:15;10.70;99.90
59857;DHT22;45733;52.668;6.860;2022-12-29T11:07:24;10.70;99.90
59857;DHT22;45733;52.668;6.860;2022-12-29T11:09:52;10.50;99.90
59857;DHT22;45733;52.668;6.860;2022-12-29T11:12:29;10.50;99.90
59857;DHT22;45733;52.668;6.860;2022-12-29T11:17:52;10.30;99.90
59857;DHT22;45733;52.668;6.860;2022-12-29T11:20:37;10.30;99.90
59857;DHT22;45733;52.668;6.860;2022-12-29T11:23:20;10.30;99.90
59857;DHT22;45733;52.668;6.860;2022-12-29T11:25:51;10.40;99.90
59857;DHT22;45733;52.668;6.860;2022-12-29T11:28:29;10.40;99.90
59857;DHT22;45733;52.668;6.860;2022-12-29T11:31:02;10.50;99.90
59857;DHT22;45733;52.668;6.860;2022-12-29T11:33:29;10.60;99.90
59857;DHT22;45733;52.668;6.860;2022-12-29T11:36:11;10.80;99.90
59857;DHT22;45733;52.668;6.860;2022-12-29T11:38:40;10.80;99.90
59857;DHT22;45733;52.668;6.860;2022-12-29T11:41:12;10.80;99.90
59857;DHT22;45733;52.668;6.860;2022-12-29T11:43:43;10.80;99.90
59857;DHT22;45733;52.668;6.860;2022-12-29T11:46:30;10.80;99.90
59857;DHT22;45733;52.668;6.860;2022-12-29T11:48:58;10.70;99.90
59857;DHT22;45733;52.668;6.860;2022-12-29T11:51:46;10.80;99.90
59857;DHT22;45733;52.668;6.860;2022-12-29T11:54:27;10.80;99.90
59857;DHT22;45733;52.668;6.860;2022-12-29T11:56:56;10.80;99.90
59857;DHT22;45733;52.668;6.860;2022-12-29T12:02:27;10.70;99.90
59857;DHT22;45733;52.668;6.860;2022-12-29T12:05:46;10.60;99.90
59857;DHT22;45733;52.668;6.860;2022-12-29T12:10:33;10.50;99.90
59857;DHT22;45733;52.668;6.860;2022-12-29T12:15:57;10.30;99.90
59857;DHT22;45733;52.668;6.860;2022-12-29T12:18:36;10.40;99.90
59857;DHT22;45733;52.668;6.860;2022-12-29T12:21:14;10.50;99.90
59857;DHT22;45733;52.668;6.860;2022-12-29T12:26:17;10.70;99.90
59857;DHT22;45733;52.668;6.860;2022-12-29T12:29:00;10.80;99.90
59857;DHT22;45733;52.668;6.860;2022-12-29T12:31:46;10.80;99.90
59857;DHT22;45733;52.668;6.860;2022-12-29T12:34:23;10.80;99.90
59857;DHT22;45733;52.668;6.860;2022-12-29T12:49:47;10.90;99.90
59857;DHT22;45733;52.668;6.860;2022-12-29T12:54:54;11.20;99.90
59857;DHT22;45733;52.668;6.860;2022-12-29T13:00:21;10.90;99.90
59857;DHT22;45733;52.668;6.860;2022-12-29T13:13:50;10.70;99.90
59857;DHT22;45733;52.668;6.860;2022-12-29T13:22:16;10.40;99.90
59857;DHT22;45733;52.668;6.860;2022-12-29T13:27:25;10.20;99.90
59857;DHT22;45733;52.668;6.860;2022-12-29T13:30:08;10.20;99.90
59857;DHT22;45733;52.668;6.860;2022-12-29T13:32:46;10.20;99.90
59857;DHT22;45733;52.668;6.860;2022-12-29T13:38:04;10.10;99.90
59857;DHT22;45733;52.668;6.860;2022-12-29T13:40:34;10.10;99.90
59857;DHT22;45733;52.668;6.860;2022-12-29T13:43:02;10.00;99.90
59857;DHT22;45733;52.668;6.860;2022-12-29T13:45:29;10.00;99.90
59857;DHT22;45733;52.668;6.860;2022-12-29T13:48:23;10.10;99.90
59857;DHT22;45733;52.668;6.860;2022-12-29T13:50:55;10.10;99.90
59857;DHT22;45733;52.668;6.860;2022-12-29T13:56:38;10.20;99.90
59857;DHT22;45733;52.668;6.860;2022-12-29T13:59:32;10.30;99.90
59857;DHT22;45733;52.668;6.860;2022-12-29T14:05:26;10.20;99.90
59857;DHT22;45733;52.668;6.860;2022-12-29T14:08:06;10.20;99.90
59857;DHT22;45733;52.668;6.860;2022-12-29T14:10:50;10.20;99.90
59857;DHT22;45733;52.668;6.860;2022-12-29T14:13:23;10.20;99.90
59857;DHT22;45733;52.668;6.860;2022-12-29T14:15:51;10.20;99.90
59857;DHT22;45733;52.668;6.860;2022-12-29T14:18:23;10.20;99.90
59857;DHT22;45733;52.668;6.860;2022-12-29T14:23:46;10.00;99.90
59857;DHT22;45733;52.668;6.860;2022-12-29T14:26:18;10.00;99.90
59857;DHT22;45733;52.668;6.860;2022-12-29T14:30:01;9.90;99.90
59857;DHT22;45733;52.668;6.860;2022-12-29T14:34:53;10.00;99.90
59857;DHT22;45733;52.668;6.860;2022-12-29T14:42:39;10.00;99.90
59857;DHT22;45733;52.668;6.860;2022-12-29T14:45:28;10.00;99.90
59857;DHT22;45733;52.668;6.860;2022-12-29T14:47:55;10.00;99.90
59857;DHT22;45733;52.668;6.860;2022-12-29T14:50:23;10.00;99.90
59857;DHT22;45733;52.668;6.860;2022-12-29T14:52:55;10.00;99.90
59857;DHT22;45733;52.668;6.860;2022-12-29T14:55:44;10.00;99.90
59857;DHT22;45733;52.668;6.860;2022-12-29T14:58:57;9.90;99.90
59857;DHT22;45733;52.668;6.860;2022-12-29T15:04:04;9.90;99.90
59857;DHT22;45733;52.668;6.860;2022-12-29T15:06:31;9.90;99.90
59857;DHT22;45733;52.668;6.860;2022-12-29T15:09:06;9.90;99.90
59857;DHT22;45733;52.668;6.860;2022-12-29T15:14:02;9.70;99.90
59857;DHT22;45733;52.668;6.860;2022-12-29T15:16:33;9.80;99.90
59857;DHT22;45733;52.668;6.860;2022-12-29T15:19:02;9.70;99.90
59857;DHT22;45733;52.668;6.860;2022-12-29T15:21:34;9.60;99.90
59857;DHT22;45733;52.668;6.860;2022-12-29T15:24:01;9.60;99.90
59857;DHT22;45733;52.668;6.860;2022-12-29T15:26:39;9.50;99.90
59857;DHT22;45733;52.668;6.860;2022-12-29T15:31:55;9.40;99.90
59857;DHT22;45733;52.668;6.860;2022-12-29T15:34:21;9.50;99.90
59857;DHT22;45733;52.668;6.860;2022-12-29T15:36:50;9.50;99.90
59857;DHT22;45733;52.668;6.860;2022-12-29T15:39:28;9.50;99.90
59857;DHT22;45733;52.668;6.860;2022-12-29T15:42:00;9.40;99.90
59857;DHT22;45733;52.668;6.860;2022-12-29T15:44:42;9.40;99.90
59857;DHT22;45733;52.668;6.860;2022-12-29T15:47:18;9.50;99.90
59857;DHT22;45733;52.668;6.860;2022-12-29T15:49:49;9.50;99.90
59857;DHT22;45733;52.668;6.860;2022-12-29T15:52:20;9.60;99.90
59857;DHT22;45733;52.668;6.860;2022-12-29T15:54:49;9.60;99.90
59857;DHT22;45733;52.668;6.860;2022-12-29T15:57:30;9.70;99.90
59857;DHT22;45733;52.668;6.860;2022-12-29T15:59:58;9.80;99.90
59857;DHT22;45733;52.668;6.860;2022-12-29T16:02:26;9.80;99.90
59857;DHT22;45733;52.668;6.860;2022-12-29T16:04:52;9.70;99.90
59857;DHT22;45733;52.668;6.860;2022-12-29T16:07:32;9.70;99.90
59857;DHT22;45733;52.668;6.860;2022-12-29T16:10:01;9.70;99.90
59857;DHT22;45733;52.668;6.860;2022-12-29T16:12:35;9.70;99.90
59857;DHT22;45733;52.668;6.860;2022-12-29T16:15:07;9.70;99.90
59857;DHT22;45733;52.668;6.860;2022-12-29T16:17:47;9.70;99.90
59857;DHT22;45733;52.668;6.860;2022-12-29T16:20:23;9.60;99.90
59857;DHT22;45733;52.668;6.860;2022-12-29T16:22:53;9.60;99.90
59857;DHT22;45733;52.668;6.860;2022-12-29T16:25:28;9.50;99.90
59857;DHT22;45733;52.668;6.860;2022-12-29T16:27:57;9.50;99.90
59857;DHT22;45733;52.668;6.860;2022-12-29T16:30:29;9.50;99.90
59857;DHT22;45733;52.668;6.860;2022-12-29T16:32:57;9.50;99.90
59857;DHT22;45733;52.668;6.860;2022-12-29T16:35:29;9.50;99.90
59857;DHT22;45733;52.668;6.860;2022-12-29T16:38:15;9.40;99.90
59857;DHT22;45733;52.668;6.860;2022-12-29T16:40:55;9.40;99.90
59857;DHT22;45733;52.668;6.860;2022-12-29T16:43:26;9.30;99.90
59857;DHT22;45733;52.668;6.860;2022-12-29T16:48:25;9.20;99.90
59857;DHT22;45733;52.668;6.860;2022-12-29T16:50:52;9.20;99.90
59857;DHT22;45733;52.668;6.860;2022-12-29T16:53:28;9.20;99.90
59857;DHT22;45733;52.668;6.860;2022-12-29T16:55:58;9.20;99.90
59857;DHT22;45733;52.668;6.860;2022-12-29T16:58:27;9.20;99.90
59857;DHT22;45733;52.668;6.860;2022-12-29T17:00:59;9.20;99.90
59857;DHT22;45733;52.668;6.860;2022-12-29T17:03:49;9.10;99.90
59857;DHT22;45733;52.668;6.860;2022-12-29T17:06:18;9.10;99.90
59857;DHT22;45733;52.668;6.860;2022-12-29T17:08:48;9.10;99.90
59857;DHT22;45733;52.668;6.860;2022-12-29T17:11:34;9.20;99.90
59857;DHT22;45733;52.668;6.860;2022-12-29T17:17:04;9.20;99.90
59857;DHT22;45733;52.668;6.860;2022-12-29T17:19:33;9.20;99.90
59857;DHT22;45733;52.668;6.860;2022-12-29T17:22:00;9.20;99.90
59857;DHT22;45733;52.668;6.860;2022-12-29T17:24:26;9.30;99.90
59857;DHT22;45733;52.668;6.860;2022-12-29T17:26:57;9.30;99.90
59857;DHT22;45733;52.668;6.860;2022-12-29T17:29:37;9.30;99.90
59857;DHT22;45733;52.668;6.860;2022-12-29T17:32:06;9.30;99.90
59857;DHT22;45733;52.668;6.860;2022-12-29T17:34:33;9.40;99.90
59857;DHT22;45733;52.668;6.860;2022-12-29T17:36:59;9.30;99.90
59857;DHT22;45733;52.668;6.860;2022-12-29T17:39:24;9.40;99.90
59857;DHT22;45733;52.668;6.860;2022-12-29T17:41:51;9.30;99.90
59857;DHT22;45733;52.668;6.860;2022-12-29T17:44:18;9.30;99.90
59857;DHT22;45733;52.668;6.860;2022-12-29T17:46:45;9.40;99.90
59857;DHT22;45733;52.668;6.860;2022-12-29T17:49:13;9.40;99.90
59857;DHT22;45733;52.668;6.860;2022-12-29T17:51:42;9.40;99.90
59857;DHT22;45733;52.668;6.860;2022-12-29T17:54:23;9.40;99.90
59857;DHT22;45733;52.668;6.860;2022-12-29T17:56:50;9.40;99.90
59857;DHT22;45733;52.668;6.860;2022-12-29T17:59:22;9.40;99.90
59857;DHT22;45733;52.668;6.860;2022-12-29T18:01:48;9.00;99.90
59857;DHT22;45733;52.668;6.860;2022-12-29T18:04:19;8.90;99.90
59857;DHT22;45733;52.668;6.860;2022-12-29T18:06:45;9.00;99.90
59857;DHT22;45733;52.668;6.860;2022-12-29T18:09:12;8.90;99.90
59857;DHT22;45733;52.668;6.860;2022-12-29T18:11:41;9.00;99.90
59857;DHT22;45733;52.668;6.860;2022-12-29T18:14:15;9.10;99.90
59857;DHT22;45733;52.668;6.860;2022-12-29T18:16:41;9.10;99.90
59857;DHT22;45733;52.668;6.860;2022-12-29T18:19:07;9.10;99.90
59857;DHT22;45733;52.668;6.860;2022-12-29T18:21:34;9.10;99.90
59857;DHT22;45733;52.668;6.860;2022-12-29T18:24:00;9.20;99.90
59857;DHT22;45733;52.668;6.860;2022-12-29T18:26:28;9.20;99.90
59857;DHT22;45733;52.668;6.860;2022-12-29T18:28:59;9.20;99.90